sensor_id;sensor_type;location;lat;lon;timestamp;P1;durP1;ratioP1;P2;durP2;ratioP2
19929;SDS011;10127;47.780;9.606;2022-07-21T00:00:17;13.93;;;11.25;;
19929;SDS011;10127;47.780;9.606;2022-07-21T00:02:43;13.32;;;11.15;;
19929;SDS011;10127;47.780;9.606;2022-07-21T00:05:09;12.68;;;10.98;;
19929;SDS011;10127;47.780;9.606;2022-07-21T00:07:35;12.77;;;11.05;;
19929;SDS011;10127;47.780;9.606;2022-07-21T00:10:01;15.35;;;11.73;;
19929;SDS011;10127;47.780;9.606;2022-07-21T00:12:27;14.30;;;12.13;;
19929;SDS011;10127;47.780;9.606;2022-07-21T00:14:52;14.15;;;12.05;;
19929;SDS011;10127;47.780;9.606;2022-07-21T00:17:18;15.30;;;12.18;;
19929;SDS011;10127;47.780;9.606;2022-07-21T00:19:44;13.13;;;11.68;;
19929;SDS011;10127;47.780;9.606;2022-07-21T00:22:09;14.63;;;12.05;;
19929;SDS011;10127;47.780;9.606;2022-07-21T00:24:35;17.83;;;12.93;;
19929;SDS011;10127;47.780;9.606;2022-07-21T00:27:00;16.20;;;12.55;;
19929;SDS011;10127;47.780;9.606;2022-07-21T00:29:26;16.17;;;12.27;;
19929;SDS011;10127;47.780;9.606;2022-07-21T00:31:51;16.95;;;11.88;;
19929;SDS011;10127;47.780;9.606;2022-07-21T00:34:17;14.55;;;11.90;;
19929;SDS011;10127;47.780;9.606;2022-07-21T00:36:42;16.58;;;12.85;;
19929;SDS011;10127;47.780;9.606;2022-07-21T00:39:08;16.33;;;12.93;;
19929;SDS011;10127;47.780;9.606;2022-07-21T00:41:34;17.88;;;13.57;;
19929;SDS011;10127;47.780;9.606;2022-07-21T00:43:59;17.15;;;12.85;;
19929;SDS011;10127;47.780;9.606;2022-07-21T00:46:25;17.70;;;13.80;;
19929;SDS011;10127;47.780;9.606;2022-07-21T00:48:50;16.15;;;13.23;;
19929;SDS011;10127;47.780;9.606;2022-07-21T00:51:16;16.23;;;13.85;;
19929;SDS011;10127;47.780;9.606;2022-07-21T00:53:42;16.73;;;13.75;;
19929;SDS011;10127;47.780;9.606;2022-07-21T00:56:08;17.50;;;13.98;;
19929;SDS011;10127;47.780;9.606;2022-07-21T00:58:34;18.75;;;14.15;;
19929;SDS011;10127;47.780;9.606;2022-07-21T01:01:00;15.82;;;13.45;;
19929;SDS011;10127;47.780;9.606;2022-07-21T01:03:25;16.23;;;13.27;;
19929;SDS011;10127;47.780;9.606;2022-07-21T01:26:29;19.00;;;14.50;;
19929;SDS011;10127;47.780;9.606;2022-07-21T01:28:55;20.42;;;14.43;;
19929;SDS011;10127;47.780;9.606;2022-07-21T01:31:22;17.48;;;15.52;;
19929;SDS011;10127;47.780;9.606;2022-07-21T01:33:48;18.50;;;15.50;;
19929;SDS011;10127;47.780;9.606;2022-07-21T01:36:15;24.75;;;14.95;;
19929;SDS011;10127;47.780;9.606;2022-07-21T01:38:40;19.80;;;14.15;;
19929;SDS011;10127;47.780;9.606;2022-07-21T01:41:24;21.10;;;13.43;;
19929;SDS011;10127;47.780;9.606;2022-07-21T01:43:58;18.67;;;14.55;;
19929;SDS011;10127;47.780;9.606;2022-07-21T01:46:27;17.77;;;14.43;;
19929;SDS011;10127;47.780;9.606;2022-07-21T01:48:54;14.80;;;13.15;;
19929;SDS011;10127;47.780;9.606;2022-07-21T01:51:19;20.23;;;14.60;;
19929;SDS011;10127;47.780;9.606;2022-07-21T01:53:45;19.90;;;14.60;;
19929;SDS011;10127;47.780;9.606;2022-07-21T01:56:10;17.02;;;14.05;;
19929;SDS011;10127;47.780;9.606;2022-07-21T01:58:36;17.42;;;13.98;;
19929;SDS011;10127;47.780;9.606;2022-07-21T02:01:02;15.52;;;13.90;;
19929;SDS011;10127;47.780;9.606;2022-07-21T02:03:27;17.60;;;14.23;;
19929;SDS011;10127;47.780;9.606;2022-07-21T02:05:53;17.75;;;13.43;;
19929;SDS011;10127;47.780;9.606;2022-07-21T02:08:24;19.05;;;14.18;;
19929;SDS011;10127;47.780;9.606;2022-07-21T02:10:50;16.25;;;14.13;;
19929;SDS011;10127;47.780;9.606;2022-07-21T02:13:16;18.05;;;14.05;;
19929;SDS011;10127;47.780;9.606;2022-07-21T02:15:42;17.25;;;13.68;;
19929;SDS011;10127;47.780;9.606;2022-07-21T02:18:07;20.30;;;14.10;;
19929;SDS011;10127;47.780;9.606;2022-07-21T02:20:33;16.45;;;13.88;;
19929;SDS011;10127;47.780;9.606;2022-07-21T02:22:58;17.33;;;14.30;;
19929;SDS011;10127;47.780;9.606;2022-07-21T02:25:24;15.70;;;13.90;;
19929;SDS011;10127;47.780;9.606;2022-07-21T02:27:49;16.88;;;13.98;;
19929;SDS011;10127;47.780;9.606;2022-07-21T02:30:15;15.82;;;14.18;;
19929;SDS011;10127;47.780;9.606;2022-07-21T02:32:40;17.45;;;14.35;;
19929;SDS011;10127;47.780;9.606;2022-07-21T02:35:06;17.67;;;14.98;;
19929;SDS011;10127;47.780;9.606;2022-07-21T02:37:32;16.35;;;14.07;;
19929;SDS011;10127;47.780;9.606;2022-07-21T02:39:58;16.67;;;13.50;;
19929;SDS011;10127;47.780;9.606;2022-07-21T02:42:23;18.58;;;14.10;;
19929;SDS011;10127;47.780;9.606;2022-07-21T02:44:49;16.58;;;14.55;;
19929;SDS011;10127;47.780;9.606;2022-07-21T02:47:14;19.80;;;14.68;;
19929;SDS011;10127;47.780;9.606;2022-07-21T02:49:40;20.70;;;14.13;;
19929;SDS011;10127;47.780;9.606;2022-07-21T02:52:06;16.60;;;14.75;;
19929;SDS011;10127;47.780;9.606;2022-07-21T02:54:31;18.00;;;13.93;;
19929;SDS011;10127;47.780;9.606;2022-07-21T02:56:57;16.25;;;14.43;;
19929;SDS011;10127;47.780;9.606;2022-07-21T02:59:22;17.63;;;14.00;;
19929;SDS011;10127;47.780;9.606;2022-07-21T03:01:48;20.42;;;14.27;;
19929;SDS011;10127;47.780;9.606;2022-07-21T03:04:14;17.27;;;13.25;;
19929;SDS011;10127;47.780;9.606;2022-07-21T03:06:40;17.55;;;13.70;;
19929;SDS011;10127;47.780;9.606;2022-07-21T03:09:07;17.00;;;13.30;;
19929;SDS011;10127;47.780;9.606;2022-07-21T03:11:33;15.40;;;13.20;;
19929;SDS011;10127;47.780;9.606;2022-07-21T03:13:58;16.30;;;13.55;;
19929;SDS011;10127;47.780;9.606;2022-07-21T03:16:24;17.85;;;13.35;;
19929;SDS011;10127;47.780;9.606;2022-07-21T03:18:50;20.60;;;13.65;;
19929;SDS011;10127;47.780;9.606;2022-07-21T03:21:15;17.33;;;13.25;;
19929;SDS011;10127;47.780;9.606;2022-07-21T03:23:41;13.90;;;11.75;;
19929;SDS011;10127;47.780;9.606;2022-07-21T03:26:10;15.65;;;12.60;;
19929;SDS011;10127;47.780;9.606;2022-07-21T03:28:36;17.17;;;12.30;;
19929;SDS011;10127;47.780;9.606;2022-07-21T03:31:02;14.07;;;11.45;;
19929;SDS011;10127;47.780;9.606;2022-07-21T03:33:27;14.68;;;13.10;;
19929;SDS011;10127;47.780;9.606;2022-07-21T03:35:53;15.68;;;13.18;;
19929;SDS011;10127;47.780;9.606;2022-07-21T03:38:19;20.55;;;12.13;;
19929;SDS011;10127;47.780;9.606;2022-07-21T03:40:44;19.55;;;12.95;;
19929;SDS011;10127;47.780;9.606;2022-07-21T03:43:10;13.98;;;12.18;;
19929;SDS011;10127;47.780;9.606;2022-07-21T03:45:35;15.90;;;12.80;;
19929;SDS011;10127;47.780;9.606;2022-07-21T03:48:02;16.45;;;13.02;;
19929;SDS011;10127;47.780;9.606;2022-07-21T03:50:29;14.10;;;12.60;;
19929;SDS011;10127;47.780;9.606;2022-07-21T03:52:55;16.35;;;12.75;;
19929;SDS011;10127;47.780;9.606;2022-07-21T03:55:21;16.98;;;12.50;;
19929;SDS011;10127;47.780;9.606;2022-07-21T03:57:48;17.83;;;13.32;;
19929;SDS011;10127;47.780;9.606;2022-07-21T04:00:20;17.33;;;11.65;;
19929;SDS011;10127;47.780;9.606;2022-07-21T04:02:51;17.95;;;12.43;;
19929;SDS011;10127;47.780;9.606;2022-07-21T04:05:17;16.48;;;11.93;;
19929;SDS011;10127;47.780;9.606;2022-07-21T04:07:44;16.90;;;11.75;;
19929;SDS011;10127;47.780;9.606;2022-07-21T04:10:12;17.45;;;12.55;;
19929;SDS011;10127;47.780;9.606;2022-07-21T04:12:38;17.33;;;11.85;;
19929;SDS011;10127;47.780;9.606;2022-07-21T04:15:05;20.02;;;12.88;;
19929;SDS011;10127;47.780;9.606;2022-07-21T04:17:31;19.10;;;12.73;;
19929;SDS011;10127;47.780;9.606;2022-07-21T04:19:57;17.02;;;15.23;;
19929;SDS011;10127;47.780;9.606;2022-07-21T04:22:23;20.73;;;15.90;;
19929;SDS011;10127;47.780;9.606;2022-07-21T04:24:49;20.77;;;12.45;;
19929;SDS011;10127;47.780;9.606;2022-07-21T04:27:14;16.45;;;12.88;;
19929;SDS011;10127;47.780;9.606;2022-07-21T04:29:40;20.90;;;13.13;;
19929;SDS011;10127;47.780;9.606;2022-07-21T04:32:05;14.98;;;11.90;;
19929;SDS011;10127;47.780;9.606;2022-07-21T04:34:31;16.42;;;12.80;;
19929;SDS011;10127;47.780;9.606;2022-07-21T04:36:57;13.43;;;12.02;;
19929;SDS011;10127;47.780;9.606;2022-07-21T04:39:22;16.13;;;12.23;;
19929;SDS011;10127;47.780;9.606;2022-07-21T04:41:48;22.38;;;12.57;;
19929;SDS011;10127;47.780;9.606;2022-07-21T04:44:14;28.25;;;13.18;;
19929;SDS011;10127;47.780;9.606;2022-07-21T04:46:39;49.88;;;30.00;;
19929;SDS011;10127;47.780;9.606;2022-07-21T04:49:05;27.95;;;14.55;;
19929;SDS011;10127;47.780;9.606;2022-07-21T04:51:31;28.60;;;19.48;;
19929;SDS011;10127;47.780;9.606;2022-07-21T04:53:56;36.30;;;22.63;;
19929;SDS011;10127;47.780;9.606;2022-07-21T04:56:22;37.90;;;22.35;;
19929;SDS011;10127;47.780;9.606;2022-07-21T04:58:47;18.17;;;13.68;;
19929;SDS011;10127;47.780;9.606;2022-07-21T05:01:13;17.35;;;11.88;;
19929;SDS011;10127;47.780;9.606;2022-07-21T05:03:38;16.23;;;12.82;;
19929;SDS011;10127;47.780;9.606;2022-07-21T05:06:04;16.88;;;13.65;;
19929;SDS011;10127;47.780;9.606;2022-07-21T05:08:30;13.68;;;12.18;;
19929;SDS011;10127;47.780;9.606;2022-07-21T05:10:55;20.13;;;12.60;;
19929;SDS011;10127;47.780;9.606;2022-07-21T05:13:21;16.92;;;12.75;;
19929;SDS011;10127;47.780;9.606;2022-07-21T05:15:46;14.85;;;11.65;;
19929;SDS011;10127;47.780;9.606;2022-07-21T05:18:12;19.88;;;13.57;;
19929;SDS011;10127;47.780;9.606;2022-07-21T05:20:38;18.02;;;12.98;;
19929;SDS011;10127;47.780;9.606;2022-07-21T05:23:03;14.05;;;11.93;;
19929;SDS011;10127;47.780;9.606;2022-07-21T05:25:29;18.75;;;11.93;;
19929;SDS011;10127;47.780;9.606;2022-07-21T05:27:57;18.48;;;12.35;;
19929;SDS011;10127;47.780;9.606;2022-07-21T05:30:22;15.20;;;12.30;;
19929;SDS011;10127;47.780;9.606;2022-07-21T05:32:48;19.05;;;12.30;;
19929;SDS011;10127;47.780;9.606;2022-07-21T05:35:13;24.60;;;14.90;;
19929;SDS011;10127;47.780;9.606;2022-07-21T05:37:40;28.73;;;17.33;;
19929;SDS011;10127;47.780;9.606;2022-07-21T05:40:07;17.67;;;12.77;;
19929;SDS011;10127;47.780;9.606;2022-07-21T05:42:34;17.35;;;12.43;;
19929;SDS011;10127;47.780;9.606;2022-07-21T05:45:00;20.77;;;12.73;;
19929;SDS011;10127;47.780;9.606;2022-07-21T05:47:26;16.92;;;12.52;;
19929;SDS011;10127;47.780;9.606;2022-07-21T05:49:52;17.80;;;11.80;;
19929;SDS011;10127;47.780;9.606;2022-07-21T05:52:17;20.25;;;13.27;;
19929;SDS011;10127;47.780;9.606;2022-07-21T05:54:43;19.33;;;12.38;;
19929;SDS011;10127;47.780;9.606;2022-07-21T05:57:08;15.85;;;12.63;;
19929;SDS011;10127;47.780;9.606;2022-07-21T05:59:35;21.92;;;12.07;;
19929;SDS011;10127;47.780;9.606;2022-07-21T06:02:00;16.17;;;12.30;;
19929;SDS011;10127;47.780;9.606;2022-07-21T06:04:26;14.93;;;12.77;;
19929;SDS011;10127;47.780;9.606;2022-07-21T06:06:51;13.48;;;11.45;;
19929;SDS011;10127;47.780;9.606;2022-07-21T06:09:17;16.90;;;11.65;;
19929;SDS011;10127;47.780;9.606;2022-07-21T06:11:43;15.32;;;12.45;;
19929;SDS011;10127;47.780;9.606;2022-07-21T06:14:09;14.68;;;12.93;;
19929;SDS011;10127;47.780;9.606;2022-07-21T06:16:35;21.92;;;13.30;;
19929;SDS011;10127;47.780;9.606;2022-07-21T06:19:01;17.30;;;13.50;;
19929;SDS011;10127;47.780;9.606;2022-07-21T06:21:27;22.08;;;14.80;;
19929;SDS011;10127;47.780;9.606;2022-07-21T06:23:53;15.48;;;12.85;;
19929;SDS011;10127;47.780;9.606;2022-07-21T06:26:18;18.92;;;13.40;;
19929;SDS011;10127;47.780;9.606;2022-07-21T06:28:44;17.08;;;11.75;;
19929;SDS011;10127;47.780;9.606;2022-07-21T06:31:10;13.95;;;11.93;;
19929;SDS011;10127;47.780;9.606;2022-07-21T06:33:35;13.52;;;11.93;;
19929;SDS011;10127;47.780;9.606;2022-07-21T06:36:01;17.15;;;11.70;;
19929;SDS011;10127;47.780;9.606;2022-07-21T06:38:26;26.10;;;22.40;;
19929;SDS011;10127;47.780;9.606;2022-07-21T06:40:52;15.07;;;11.68;;
19929;SDS011;10127;47.780;9.606;2022-07-21T06:43:18;15.13;;;11.75;;
19929;SDS011;10127;47.780;9.606;2022-07-21T06:45:44;21.92;;;13.27;;
19929;SDS011;10127;47.780;9.606;2022-07-21T06:48:09;19.70;;;12.38;;
19929;SDS011;10127;47.780;9.606;2022-07-21T06:50:35;15.90;;;11.30;;
19929;SDS011;10127;47.780;9.606;2022-07-21T06:53:02;18.38;;;11.25;;
19929;SDS011;10127;47.780;9.606;2022-07-21T06:55:28;16.83;;;12.23;;
19929;SDS011;10127;47.780;9.606;2022-07-21T06:57:54;17.75;;;12.13;;
19929;SDS011;10127;47.780;9.606;2022-07-21T07:00:20;15.85;;;11.75;;
19929;SDS011;10127;47.780;9.606;2022-07-21T07:02:46;16.77;;;10.82;;
19929;SDS011;10127;47.780;9.606;2022-07-21T07:05:11;14.45;;;11.05;;
19929;SDS011;10127;47.780;9.606;2022-07-21T07:07:37;15.88;;;10.73;;
19929;SDS011;10127;47.780;9.606;2022-07-21T07:10:03;16.27;;;11.95;;
19929;SDS011;10127;47.780;9.606;2022-07-21T07:12:29;16.52;;;12.00;;
19929;SDS011;10127;47.780;9.606;2022-07-21T07:14:55;13.73;;;11.38;;
19929;SDS011;10127;47.780;9.606;2022-07-21T07:17:21;16.98;;;12.10;;
19929;SDS011;10127;47.780;9.606;2022-07-21T07:19:46;16.25;;;13.13;;
19929;SDS011;10127;47.780;9.606;2022-07-21T07:22:13;14.98;;;11.73;;
19929;SDS011;10127;47.780;9.606;2022-07-21T07:24:39;13.88;;;10.63;;
19929;SDS011;10127;47.780;9.606;2022-07-21T07:27:05;16.13;;;11.63;;
19929;SDS011;10127;47.780;9.606;2022-07-21T07:29:31;19.48;;;11.93;;
19929;SDS011;10127;47.780;9.606;2022-07-21T07:31:57;18.00;;;11.93;;
19929;SDS011;10127;47.780;9.606;2022-07-21T07:34:23;17.58;;;12.00;;
19929;SDS011;10127;47.780;9.606;2022-07-21T07:36:49;17.08;;;11.73;;
19929;SDS011;10127;47.780;9.606;2022-07-21T07:39:15;14.65;;;10.60;;
19929;SDS011;10127;47.780;9.606;2022-07-21T07:41:41;16.20;;;11.25;;
19929;SDS011;10127;47.780;9.606;2022-07-21T07:44:07;16.10;;;11.32;;
19929;SDS011;10127;47.780;9.606;2022-07-21T07:46:33;16.58;;;11.25;;
19929;SDS011;10127;47.780;9.606;2022-07-21T07:48:59;22.23;;;15.77;;
19929;SDS011;10127;47.780;9.606;2022-07-21T07:51:24;35.20;;;22.88;;
19929;SDS011;10127;47.780;9.606;2022-07-21T07:53:50;15.63;;;11.32;;
19929;SDS011;10127;47.780;9.606;2022-07-21T07:56:16;14.05;;;11.15;;
19929;SDS011;10127;47.780;9.606;2022-07-21T07:58:42;17.23;;;10.90;;
19929;SDS011;10127;47.780;9.606;2022-07-21T08:01:07;16.33;;;11.73;;
19929;SDS011;10127;47.780;9.606;2022-07-21T08:03:34;21.80;;;11.40;;
19929;SDS011;10127;47.780;9.606;2022-07-21T08:06:00;16.83;;;10.52;;
19929;SDS011;10127;47.780;9.606;2022-07-21T08:08:28;15.70;;;11.20;;
19929;SDS011;10127;47.780;9.606;2022-07-21T08:10:54;15.73;;;10.93;;
19929;SDS011;10127;47.780;9.606;2022-07-21T08:13:20;14.23;;;11.02;;
19929;SDS011;10127;47.780;9.606;2022-07-21T08:15:46;14.65;;;10.48;;
19929;SDS011;10127;47.780;9.606;2022-07-21T08:18:13;19.63;;;11.38;;
19929;SDS011;10127;47.780;9.606;2022-07-21T08:20:40;14.60;;;10.57;;
19929;SDS011;10127;47.780;9.606;2022-07-21T08:23:06;15.73;;;11.38;;
19929;SDS011;10127;47.780;9.606;2022-07-21T08:25:32;14.32;;;10.88;;
19929;SDS011;10127;47.780;9.606;2022-07-21T08:27:58;13.73;;;11.00;;
19929;SDS011;10127;47.780;9.606;2022-07-21T08:30:24;18.95;;;11.10;;
19929;SDS011;10127;47.780;9.606;2022-07-21T08:32:49;14.35;;;10.85;;
19929;SDS011;10127;47.780;9.606;2022-07-21T08:35:15;14.50;;;10.10;;
19929;SDS011;10127;47.780;9.606;2022-07-21T08:37:41;23.13;;;14.45;;
19929;SDS011;10127;47.780;9.606;2022-07-21T08:40:08;20.23;;;12.77;;
19929;SDS011;10127;47.780;9.606;2022-07-21T08:42:35;11.80;;;10.48;;
19929;SDS011;10127;47.780;9.606;2022-07-21T08:45:01;11.95;;;9.27;;
19929;SDS011;10127;47.780;9.606;2022-07-21T08:47:28;11.88;;;9.25;;
19929;SDS011;10127;47.780;9.606;2022-07-21T08:49:55;11.20;;;9.90;;
19929;SDS011;10127;47.780;9.606;2022-07-21T08:52:22;16.02;;;9.80;;
19929;SDS011;10127;47.780;9.606;2022-07-21T08:54:48;12.90;;;9.43;;
19929;SDS011;10127;47.780;9.606;2022-07-21T08:57:15;15.15;;;9.95;;
19929;SDS011;10127;47.780;9.606;2022-07-21T08:59:40;12.45;;;8.98;;
19929;SDS011;10127;47.780;9.606;2022-07-21T09:02:10;15.30;;;9.98;;
19929;SDS011;10127;47.780;9.606;2022-07-21T09:04:53;13.27;;;9.45;;
19929;SDS011;10127;47.780;9.606;2022-07-21T09:07:19;10.82;;;8.68;;
19929;SDS011;10127;47.780;9.606;2022-07-21T09:09:53;11.57;;;9.02;;
19929;SDS011;10127;47.780;9.606;2022-07-21T09:12:27;14.65;;;8.75;;
19929;SDS011;10127;47.780;9.606;2022-07-21T09:15:18;11.68;;;8.48;;
19929;SDS011;10127;47.780;9.606;2022-07-21T09:17:45;13.27;;;9.13;;
19929;SDS011;10127;47.780;9.606;2022-07-21T09:20:21;14.43;;;10.00;;
19929;SDS011;10127;47.780;9.606;2022-07-21T09:23:00;13.13;;;9.18;;
19929;SDS011;10127;47.780;9.606;2022-07-21T09:25:35;38.28;;;25.45;;
19929;SDS011;10127;47.780;9.606;2022-07-21T09:28:06;13.77;;;10.60;;
19929;SDS011;10127;47.780;9.606;2022-07-21T09:33:29;12.05;;;7.70;;
19929;SDS011;10127;47.780;9.606;2022-07-21T09:38:24;12.15;;;7.10;;
19929;SDS011;10127;47.780;9.606;2022-07-21T09:40:51;10.20;;;7.10;;
19929;SDS011;10127;47.780;9.606;2022-07-21T09:46:10;11.77;;;8.50;;
19929;SDS011;10127;47.780;9.606;2022-07-21T09:48:38;11.65;;;8.52;;
19929;SDS011;10127;47.780;9.606;2022-07-21T09:56:19;10.20;;;8.10;;
19929;SDS011;10127;47.780;9.606;2022-07-21T09:58:47;13.25;;;8.07;;
19929;SDS011;10127;47.780;9.606;2022-07-21T10:01:14;13.55;;;7.35;;
19929;SDS011;10127;47.780;9.606;2022-07-21T10:03:41;10.55;;;7.63;;
19929;SDS011;10127;47.780;9.606;2022-07-21T10:06:09;9.95;;;7.47;;
19929;SDS011;10127;47.780;9.606;2022-07-21T10:08:35;8.25;;;7.35;;
19929;SDS011;10127;47.780;9.606;2022-07-21T10:11:02;8.90;;;7.32;;
19929;SDS011;10127;47.780;9.606;2022-07-21T10:13:29;13.32;;;7.57;;
19929;SDS011;10127;47.780;9.606;2022-07-21T10:15:54;8.57;;;7.35;;
19929;SDS011;10127;47.780;9.606;2022-07-21T10:18:22;12.30;;;8.07;;
19929;SDS011;10127;47.780;9.606;2022-07-21T10:20:52;12.40;;;7.50;;
19929;SDS011;10127;47.780;9.606;2022-07-21T10:25:57;16.88;;;11.38;;
19929;SDS011;10127;47.780;9.606;2022-07-21T10:28:23;8.77;;;7.05;;
19929;SDS011;10127;47.780;9.606;2022-07-21T10:30:53;11.32;;;8.30;;
19929;SDS011;10127;47.780;9.606;2022-07-21T10:33:50;10.15;;;6.60;;
19929;SDS011;10127;47.780;9.606;2022-07-21T10:36:10;9.82;;;6.15;;
19929;SDS011;10127;47.780;9.606;2022-07-21T10:41:41;7.65;;;5.82;;
19929;SDS011;10127;47.780;9.606;2022-07-21T10:47:12;9.50;;;5.22;;
19929;SDS011;10127;47.780;9.606;2022-07-21T10:49:47;10.02;;;4.97;;
19929;SDS011;10127;47.780;9.606;2022-07-21T10:52:51;8.10;;;4.97;;
19929;SDS011;10127;47.780;9.606;2022-07-21T10:57:45;6.13;;;4.32;;
19929;SDS011;10127;47.780;9.606;2022-07-21T11:00:16;7.68;;;5.13;;
19929;SDS011;10127;47.780;9.606;2022-07-21T11:02:50;8.63;;;5.40;;
19929;SDS011;10127;47.780;9.606;2022-07-21T11:05:27;8.98;;;6.00;;
19929;SDS011;10127;47.780;9.606;2022-07-21T11:10:38;5.97;;;4.57;;
19929;SDS011;10127;47.780;9.606;2022-07-21T11:13:08;5.72;;;4.05;;
19929;SDS011;10127;47.780;9.606;2022-07-21T11:18:29;6.95;;;4.22;;
19929;SDS011;10127;47.780;9.606;2022-07-21T11:21:06;8.23;;;3.95;;
19929;SDS011;10127;47.780;9.606;2022-07-21T11:23:39;5.65;;;4.07;;
19929;SDS011;10127;47.780;9.606;2022-07-21T11:26:07;6.72;;;4.47;;
19929;SDS011;10127;47.780;9.606;2022-07-21T11:28:33;4.90;;;3.83;;
19929;SDS011;10127;47.780;9.606;2022-07-21T11:31:09;7.82;;;4.78;;
19929;SDS011;10127;47.780;9.606;2022-07-21T11:33:46;4.35;;;3.28;;
19929;SDS011;10127;47.780;9.606;2022-07-21T11:36:23;5.68;;;4.60;;
19929;SDS011;10127;47.780;9.606;2022-07-21T11:39:02;5.50;;;3.88;;
19929;SDS011;10127;47.780;9.606;2022-07-21T11:41:36;7.15;;;4.50;;
19929;SDS011;10127;47.780;9.606;2022-07-21T11:44:04;7.47;;;3.80;;
19929;SDS011;10127;47.780;9.606;2022-07-21T11:46:46;8.25;;;4.03;;
19929;SDS011;10127;47.780;9.606;2022-07-21T11:49:13;5.35;;;3.75;;
19929;SDS011;10127;47.780;9.606;2022-07-21T11:51:45;8.68;;;4.55;;
19929;SDS011;10127;47.780;9.606;2022-07-21T11:56:50;7.30;;;4.50;;
19929;SDS011;10127;47.780;9.606;2022-07-21T11:59:16;8.77;;;6.28;;
19929;SDS011;10127;47.780;9.606;2022-07-21T12:01:49;7.85;;;5.05;;
19929;SDS011;10127;47.780;9.606;2022-07-21T12:07:05;20.45;;;13.40;;
19929;SDS011;10127;47.780;9.606;2022-07-21T12:09:35;20.00;;;12.10;;
19929;SDS011;10127;47.780;9.606;2022-07-21T12:12:01;8.57;;;5.28;;
19929;SDS011;10127;47.780;9.606;2022-07-21T12:14:43;10.23;;;5.45;;
19929;SDS011;10127;47.780;9.606;2022-07-21T12:17:11;11.50;;;6.85;;
19929;SDS011;10127;47.780;9.606;2022-07-21T12:19:37;8.40;;;7.10;;
19929;SDS011;10127;47.780;9.606;2022-07-21T12:22:03;6.00;;;5.15;;
19929;SDS011;10127;47.780;9.606;2022-07-21T12:27:16;13.23;;;8.93;;
19929;SDS011;10127;47.780;9.606;2022-07-21T12:29:43;9.18;;;5.20;;
19929;SDS011;10127;47.780;9.606;2022-07-21T12:32:08;6.35;;;3.80;;
19929;SDS011;10127;47.780;9.606;2022-07-21T12:34:47;8.15;;;4.25;;
19929;SDS011;10127;47.780;9.606;2022-07-21T12:37:14;7.35;;;4.28;;
19929;SDS011;10127;47.780;9.606;2022-07-21T12:39:39;6.30;;;4.07;;
19929;SDS011;10127;47.780;9.606;2022-07-21T12:42:35;4.78;;;3.83;;
19929;SDS011;10127;47.780;9.606;2022-07-21T12:45:19;7.00;;;3.80;;
19929;SDS011;10127;47.780;9.606;2022-07-21T12:51:04;7.43;;;3.92;;
19929;SDS011;10127;47.780;9.606;2022-07-21T12:53:31;6.60;;;4.28;;
19929;SDS011;10127;47.780;9.606;2022-07-21T12:56:00;5.70;;;3.83;;
19929;SDS011;10127;47.780;9.606;2022-07-21T12:58:26;8.18;;;4.22;;
19929;SDS011;10127;47.780;9.606;2022-07-21T13:00:52;4.78;;;4.18;;
19929;SDS011;10127;47.780;9.606;2022-07-21T13:03:18;6.22;;;4.00;;
19929;SDS011;10127;47.780;9.606;2022-07-21T13:05:43;4.65;;;3.88;;
19929;SDS011;10127;47.780;9.606;2022-07-21T13:08:09;6.75;;;3.70;;
19929;SDS011;10127;47.780;9.606;2022-07-21T13:10:35;5.70;;;4.22;;
19929;SDS011;10127;47.780;9.606;2022-07-21T13:13:00;7.50;;;4.60;;
19929;SDS011;10127;47.780;9.606;2022-07-21T13:15:26;5.25;;;4.32;;
19929;SDS011;10127;47.780;9.606;2022-07-21T13:17:52;5.50;;;4.25;;
19929;SDS011;10127;47.780;9.606;2022-07-21T13:20:17;6.47;;;3.92;;
19929;SDS011;10127;47.780;9.606;2022-07-21T13:22:43;7.40;;;4.30;;
19929;SDS011;10127;47.780;9.606;2022-07-21T13:25:09;5.53;;;4.43;;
19929;SDS011;10127;47.780;9.606;2022-07-21T13:27:35;7.43;;;4.22;;
19929;SDS011;10127;47.780;9.606;2022-07-21T13:30:02;7.22;;;4.28;;
19929;SDS011;10127;47.780;9.606;2022-07-21T13:32:30;16.63;;;13.55;;
19929;SDS011;10127;47.780;9.606;2022-07-21T13:34:57;21.75;;;17.00;;
19929;SDS011;10127;47.780;9.606;2022-07-21T13:37:23;6.60;;;5.60;;
19929;SDS011;10127;47.780;9.606;2022-07-21T13:39:48;9.82;;;7.22;;
19929;SDS011;10127;47.780;9.606;2022-07-21T13:42:14;16.05;;;12.38;;
19929;SDS011;10127;47.780;9.606;2022-07-21T13:44:39;17.00;;;10.70;;
19929;SDS011;10127;47.780;9.606;2022-07-21T13:47:05;30.42;;;21.30;;
19929;SDS011;10127;47.780;9.606;2022-07-21T13:49:30;16.05;;;12.50;;
19929;SDS011;10127;47.780;9.606;2022-07-21T13:51:56;9.77;;;5.72;;
19929;SDS011;10127;47.780;9.606;2022-07-21T13:54:22;6.13;;;3.83;;
19929;SDS011;10127;47.780;9.606;2022-07-21T13:56:47;8.65;;;4.18;;
19929;SDS011;10127;47.780;9.606;2022-07-21T13:59:13;6.25;;;5.22;;
19929;SDS011;10127;47.780;9.606;2022-07-21T14:01:39;32.10;;;25.17;;
19929;SDS011;10127;47.780;9.606;2022-07-21T14:04:04;7.70;;;4.97;;
19929;SDS011;10127;47.780;9.606;2022-07-21T14:06:30;12.00;;;4.40;;
19929;SDS011;10127;47.780;9.606;2022-07-21T14:08:55;10.10;;;4.93;;
19929;SDS011;10127;47.780;9.606;2022-07-21T14:11:21;6.97;;;4.45;;
19929;SDS011;10127;47.780;9.606;2022-07-21T14:13:49;5.10;;;4.13;;
19929;SDS011;10127;47.780;9.606;2022-07-21T14:16:14;5.50;;;4.18;;
19929;SDS011;10127;47.780;9.606;2022-07-21T14:18:40;5.05;;;3.83;;
19929;SDS011;10127;47.780;9.606;2022-07-21T14:21:06;7.18;;;4.45;;
19929;SDS011;10127;47.780;9.606;2022-07-21T14:23:32;5.10;;;4.03;;
19929;SDS011;10127;47.780;9.606;2022-07-21T14:25:58;5.50;;;4.30;;
19929;SDS011;10127;47.780;9.606;2022-07-21T14:28:24;9.13;;;4.35;;
19929;SDS011;10127;47.780;9.606;2022-07-21T14:30:50;7.60;;;4.10;;
19929;SDS011;10127;47.780;9.606;2022-07-21T14:33:16;8.00;;;3.95;;
19929;SDS011;10127;47.780;9.606;2022-07-21T14:35:42;8.15;;;4.15;;
19929;SDS011;10127;47.780;9.606;2022-07-21T14:38:08;7.47;;;4.15;;
19929;SDS011;10127;47.780;9.606;2022-07-21T14:40:33;5.57;;;4.22;;
19929;SDS011;10127;47.780;9.606;2022-07-21T14:43:00;4.57;;;3.47;;
19929;SDS011;10127;47.780;9.606;2022-07-21T14:45:26;7.10;;;4.00;;
19929;SDS011;10127;47.780;9.606;2022-07-21T14:47:52;6.32;;;4.68;;
19929;SDS011;10127;47.780;9.606;2022-07-21T14:50:19;5.18;;;3.92;;
19929;SDS011;10127;47.780;9.606;2022-07-21T14:52:46;9.80;;;4.47;;
19929;SDS011;10127;47.780;9.606;2022-07-21T14:55:12;7.93;;;3.90;;
19929;SDS011;10127;47.780;9.606;2022-07-21T14:57:37;6.57;;;4.00;;
19929;SDS011;10127;47.780;9.606;2022-07-21T15:00:07;4.88;;;3.97;;
19929;SDS011;10127;47.780;9.606;2022-07-21T15:02:34;7.35;;;3.95;;
19929;SDS011;10127;47.780;9.606;2022-07-21T15:05:00;4.75;;;3.80;;
19929;SDS011;10127;47.780;9.606;2022-07-21T15:07:26;5.53;;;3.80;;
19929;SDS011;10127;47.780;9.606;2022-07-21T15:09:52;6.20;;;3.97;;
19929;SDS011;10127;47.780;9.606;2022-07-21T15:12:20;6.72;;;4.22;;
19929;SDS011;10127;47.780;9.606;2022-07-21T15:14:46;5.95;;;3.83;;
19929;SDS011;10127;47.780;9.606;2022-07-21T15:17:12;7.20;;;4.25;;
19929;SDS011;10127;47.780;9.606;2022-07-21T15:19:37;7.53;;;4.50;;
19929;SDS011;10127;47.780;9.606;2022-07-21T15:22:03;6.00;;;3.78;;
19929;SDS011;10127;47.780;9.606;2022-07-21T15:24:28;5.85;;;3.90;;
19929;SDS011;10127;47.780;9.606;2022-07-21T15:26:54;9.20;;;4.00;;
19929;SDS011;10127;47.780;9.606;2022-07-21T15:29:20;10.68;;;4.00;;
19929;SDS011;10127;47.780;9.606;2022-07-21T15:31:45;7.45;;;3.92;;